North Monroeville, Ohio
Current Conditions -  °F | °C
As of 11:13 PM on Monday 22 Dec 2014 (Local Time) from KPCW Reporting Station
Broken Clouds Broken Clouds  
Wind Chill: 30°   Ceiling: 9000
Heat Index: 37°   Visibility: 10mi
Dew Point: 32°   Wind: 10mph
Humidity: 81%   Direction: 110°ESE
Pressure: 29.82"   Gusts: NA
Location:  41.2282°N, 82.706°W
Report Text: KPCW 230413Z AUTO 11009KT 10SM BKN090 03/00 A2982 RMK AO2 $
Loading
Personal Weather Stations






























Interactive Weather Map New forecast layout! Learn more

10-Day Weather Forecast

Advertisements
Track Severe Weather on mobile